sensor_id;sensor_type;location;lat;lon;timestamp;pressure;altitude;pressure_sealevel;temperature
78917;BMP280;68315;48.608;11.436;2023-07-31T00:00:06;97345.06;;;14.97
78917;BMP280;68315;48.608;11.436;2023-07-31T00:02:31;97338.47;;;14.93
78917;BMP280;68315;48.608;11.436;2023-07-31T00:04:56;97330.72;;;14.84
78917;BMP280;68315;48.608;11.436;2023-07-31T00:07:22;97337.56;;;14.75
78917;BMP280;68315;48.608;11.436;2023-07-31T00:09:47;97341.06;;;14.68
78917;BMP280;68315;48.608;11.436;2023-07-31T00:12:12;97342.38;;;14.60
78917;BMP280;68315;48.608;11.436;2023-07-31T00:14:37;97339.28;;;14.48
78917;BMP280;68315;48.608;11.436;2023-07-31T00:17:03;97336.50;;;14.40
78917;BMP280;68315;48.608;11.436;2023-07-31T00:19:28;97338.16;;;14.36
78917;BMP280;68315;48.608;11.436;2023-07-31T00:21:53;97336.69;;;14.35
78917;BMP280;68315;48.608;11.436;2023-07-31T00:24:19;97331.72;;;14.33
78917;BMP280;68315;48.608;11.436;2023-07-31T00:26:44;97332.06;;;14.30
78917;BMP280;68315;48.608;11.436;2023-07-31T00:29:10;97332.81;;;14.30
78917;BMP280;68315;48.608;11.436;2023-07-31T00:31:35;97344.44;;;14.29
78917;BMP280;68315;48.608;11.436;2023-07-31T00:34:00;97336.88;;;14.29
78917;BMP280;68315;48.608;11.436;2023-07-31T00:36:25;97337.59;;;14.30
78917;BMP280;68315;48.608;11.436;2023-07-31T00:38:51;97328.75;;;14.31
78917;BMP280;68315;48.608;11.436;2023-07-31T00:41:16;97332.06;;;14.30
78917;BMP280;68315;48.608;11.436;2023-07-31T00:43:41;97333.19;;;14.27
78917;BMP280;68315;48.608;11.436;2023-07-31T00:46:07;97335.97;;;14.27
78917;BMP280;68315;48.608;11.436;2023-07-31T00:48:32;97329.16;;;14.28
78917;BMP280;68315;48.608;11.436;2023-07-31T00:50:58;97329.16;;;14.28
78917;BMP280;68315;48.608;11.436;2023-07-31T00:53:24;97318.09;;;14.28
78917;BMP280;68315;48.608;11.436;2023-07-31T00:55:50;97324.16;;;14.26
78917;BMP280;68315;48.608;11.436;2023-07-31T00:58:15;97316.97;;;14.23
78917;BMP280;68315;48.608;11.436;2023-07-31T01:00:40;97316.63;;;14.19
78917;BMP280;68315;48.608;11.436;2023-07-31T01:03:06;97328.19;;;14.18
78917;BMP280;68315;48.608;11.436;2023-07-31T01:08:20;97324.16;;;14.19
78917;BMP280;68315;48.608;11.436;2023-07-31T01:10:51;97328.75;;;14.24
78917;BMP280;68315;48.608;11.436;2023-07-31T01:13:20;97322.88;;;14.27
78917;BMP280;68315;48.608;11.436;2023-07-31T01:15:46;97325.28;;;14.31
78917;BMP280;68315;48.608;11.436;2023-07-31T01:18:11;97328.22;;;14.33
78917;BMP280;68315;48.608;11.436;2023-07-31T01:20:37;97327.28;;;14.30
78917;BMP280;68315;48.608;11.436;2023-07-31T01:25:50;97321.22;;;14.24
78917;BMP280;68315;48.608;11.436;2023-07-31T01:28:20;97304.81;;;14.26
78917;BMP280;68315;48.608;11.436;2023-07-31T01:30:48;97305.00;;;14.28
78917;BMP280;68315;48.608;11.436;2023-07-31T01:33:15;97301.31;;;14.26
78917;BMP280;68315;48.608;11.436;2023-07-31T01:35:44;97298.53;;;14.26
78917;BMP280;68315;48.608;11.436;2023-07-31T01:38:10;97301.13;;;14.24
78917;BMP280;68315;48.608;11.436;2023-07-31T01:40:35;97291.75;;;14.19
78917;BMP280;68315;48.608;11.436;2023-07-31T01:43:00;97296.38;;;14.17
78917;BMP280;68315;48.608;11.436;2023-07-31T01:45:26;97307.22;;;14.15
78917;BMP280;68315;48.608;11.436;2023-07-31T01:47:51;97300.75;;;14.12
78917;BMP280;68315;48.608;11.436;2023-07-31T01:50:16;97300.00;;;14.12
78917;BMP280;68315;48.608;11.436;2023-07-31T01:52:42;97296.34;;;14.09
78917;BMP280;68315;48.608;11.436;2023-07-31T01:55:07;97300.78;;;14.05
78917;BMP280;68315;48.608;11.436;2023-07-31T01:57:32;97306.84;;;14.03
78917;BMP280;68315;48.608;11.436;2023-07-31T01:59:57;97296.72;;;13.98
78917;BMP280;68315;48.608;11.436;2023-07-31T02:02:23;97301.88;;;13.94
78917;BMP280;68315;48.608;11.436;2023-07-31T02:04:48;97300.97;;;13.92
78917;BMP280;68315;48.608;11.436;2023-07-31T02:07:14;97291.53;;;13.87
78917;BMP280;68315;48.608;11.436;2023-07-31T02:09:39;97285.66;;;13.83
78917;BMP280;68315;48.608;11.436;2023-07-31T02:12:04;97281.78;;;13.79
78917;BMP280;68315;48.608;11.436;2023-07-31T02:14:30;97283.59;;;13.76
78917;BMP280;68315;48.608;11.436;2023-07-31T02:16:55;97277.75;;;13.72
78917;BMP280;68315;48.608;11.436;2023-07-31T02:19:20;97280.66;;;13.67
78917;BMP280;68315;48.608;11.436;2023-07-31T02:21:45;97267.56;;;13.60
78917;BMP280;68315;48.608;11.436;2023-07-31T02:24:11;97264.25;;;13.61
78917;BMP280;68315;48.608;11.436;2023-07-31T02:26:36;97260.94;;;13.63
78917;BMP280;68315;48.608;11.436;2023-07-31T02:29:01;97252.09;;;13.64
78917;BMP280;68315;48.608;11.436;2023-07-31T02:31:26;97250.28;;;13.67
78917;BMP280;68315;48.608;11.436;2023-07-31T02:33:52;97251.38;;;13.64
78917;BMP280;68315;48.608;11.436;2023-07-31T02:36:17;97255.06;;;13.59
78917;BMP280;68315;48.608;11.436;2023-07-31T02:38:42;97252.84;;;13.57
78917;BMP280;68315;48.608;11.436;2023-07-31T02:41:07;97250.81;;;13.58
78917;BMP280;68315;48.608;11.436;2023-07-31T02:43:33;97245.84;;;13.56
78917;BMP280;68315;48.608;11.436;2023-07-31T02:45:59;97247.16;;;13.55
78917;BMP280;68315;48.608;11.436;2023-07-31T02:48:24;97253.75;;;13.52
78917;BMP280;68315;48.608;11.436;2023-07-31T02:50:49;97245.84;;;13.48
78917;BMP280;68315;48.608;11.436;2023-07-31T02:53:15;97241.41;;;13.45
78917;BMP280;68315;48.608;11.436;2023-07-31T02:55:40;97239.75;;;13.42
78917;BMP280;68315;48.608;11.436;2023-07-31T02:58:06;97243.59;;;13.39
78917;BMP280;68315;48.608;11.436;2023-07-31T03:00:31;97239.00;;;13.34
78917;BMP280;68315;48.608;11.436;2023-07-31T03:02:56;97239.19;;;13.29
78917;BMP280;68315;48.608;11.436;2023-07-31T03:05:21;97230.16;;;13.28
78917;BMP280;68315;48.608;11.436;2023-07-31T03:07:47;97240.66;;;13.30
78917;BMP280;68315;48.608;11.436;2023-07-31T03:10:12;97227.56;;;13.30
78917;BMP280;68315;48.608;11.436;2023-07-31T03:12:37;97234.94;;;13.28
78917;BMP280;68315;48.608;11.436;2023-07-31T03:15:03;97233.47;;;13.27
78917;BMP280;68315;48.608;11.436;2023-07-31T03:17:28;97235.50;;;13.26
78917;BMP280;68315;48.608;11.436;2023-07-31T03:19:53;97239.00;;;13.27
78917;BMP280;68315;48.608;11.436;2023-07-31T03:22:19;97239.34;;;13.23
78917;BMP280;68315;48.608;11.436;2023-07-31T03:24:44;97237.69;;;13.20
78917;BMP280;68315;48.608;11.436;2023-07-31T03:27:09;97234.72;;;13.18
78917;BMP280;68315;48.608;11.436;2023-07-31T03:29:34;97242.25;;;13.18
78917;BMP280;68315;48.608;11.436;2023-07-31T03:32:00;97242.09;;;13.16
78917;BMP280;68315;48.608;11.436;2023-07-31T03:34:25;97244.44;;;13.12
78917;BMP280;68315;48.608;11.436;2023-07-31T03:36:51;97241.84;;;13.06
78917;BMP280;68315;48.608;11.436;2023-07-31T03:39:16;97241.13;;;13.06
78917;BMP280;68315;48.608;11.436;2023-07-31T03:41:41;97248.47;;;13.03
78917;BMP280;68315;48.608;11.436;2023-07-31T03:44:06;97242.78;;;13.01
78917;BMP280;68315;48.608;11.436;2023-07-31T03:46:32;97249.56;;;13.00
78917;BMP280;68315;48.608;11.436;2023-07-31T03:48:58;97251.06;;;13.01
78917;BMP280;68315;48.608;11.436;2023-07-31T03:51:24;97241.47;;;13.02
78917;BMP280;68315;48.608;11.436;2023-07-31T03:53:49;97243.72;;;13.04
78917;BMP280;68315;48.608;11.436;2023-07-31T03:56:14;97240.38;;;13.05
78917;BMP280;68315;48.608;11.436;2023-07-31T03:58:39;97248.13;;;13.07
78917;BMP280;68315;48.608;11.436;2023-07-31T04:01:05;97238.75;;;13.10
78917;BMP280;68315;48.608;11.436;2023-07-31T04:03:30;97243.53;;;13.09
78917;BMP280;68315;48.608;11.436;2023-07-31T04:05:55;97249.81;;;13.10
78917;BMP280;68315;48.608;11.436;2023-07-31T04:08:21;97249.22;;;13.11
78917;BMP280;68315;48.608;11.436;2023-07-31T04:10:47;97242.63;;;13.14
78917;BMP280;68315;48.608;11.436;2023-07-31T04:13:12;97245.03;;;13.18
78917;BMP280;68315;48.608;11.436;2023-07-31T04:15:37;97252.59;;;13.17
78917;BMP280;68315;48.608;11.436;2023-07-31T04:18:02;97245.97;;;13.20
78917;BMP280;68315;48.608;11.436;2023-07-31T04:20:28;97249.06;;;13.24
78917;BMP280;68315;48.608;11.436;2023-07-31T04:22:53;97236.44;;;13.29
78917;BMP280;68315;48.608;11.436;2023-07-31T04:25:18;97244.34;;;13.32
78917;BMP280;68315;48.608;11.436;2023-07-31T04:27:43;97241.03;;;13.34
78917;BMP280;68315;48.608;11.436;2023-07-31T04:30:09;97237.34;;;13.31
78917;BMP280;68315;48.608;11.436;2023-07-31T04:32:34;97240.84;;;13.32
78917;BMP280;68315;48.608;11.436;2023-07-31T04:35:00;97236.25;;;13.34
78917;BMP280;68315;48.608;11.436;2023-07-31T04:37:25;97235.88;;;13.38
78917;BMP280;68315;48.608;11.436;2023-07-31T04:39:51;97239.75;;;13.42
78917;BMP280;68315;48.608;11.436;2023-07-31T04:42:16;97229.28;;;13.48
78917;BMP280;68315;48.608;11.436;2023-07-31T04:44:41;97224.16;;;13.60
78917;BMP280;68315;48.608;11.436;2023-07-31T04:47:06;97226.88;;;13.75
78917;BMP280;68315;48.608;11.436;2023-07-31T04:49:32;97225.97;;;13.88
78917;BMP280;68315;48.608;11.436;2023-07-31T04:51:57;97223.56;;;13.99
78917;BMP280;68315;48.608;11.436;2023-07-31T04:54:23;97215.81;;;14.13
78917;BMP280;68315;48.608;11.436;2023-07-31T04:56:48;97217.28;;;14.29
78917;BMP280;68315;48.608;11.436;2023-07-31T04:59:13;97222.03;;;14.43
78917;BMP280;68315;48.608;11.436;2023-07-31T05:01:38;97222.38;;;14.55
78917;BMP280;68315;48.608;11.436;2023-07-31T05:04:04;97221.41;;;14.68
78917;BMP280;68315;48.608;11.436;2023-07-31T05:06:29;97226.53;;;14.79
78917;BMP280;68315;48.608;11.436;2023-07-31T05:08:54;97230.69;;;14.95
78917;BMP280;68315;48.608;11.436;2023-07-31T05:11:19;97235.75;;;15.13
78917;BMP280;68315;48.608;11.436;2023-07-31T05:13:45;97240.53;;;15.20
78917;BMP280;68315;48.608;11.436;2023-07-31T05:16:10;97236.06;;;15.25
78917;BMP280;68315;48.608;11.436;2023-07-31T05:18:35;97238.78;;;15.32
78917;BMP280;68315;48.608;11.436;2023-07-31T05:21:00;97239.88;;;15.37
78917;BMP280;68315;48.608;11.436;2023-07-31T05:23:26;97237.44;;;15.41
78917;BMP280;68315;48.608;11.436;2023-07-31T05:25:51;97236.31;;;15.44
78917;BMP280;68315;48.608;11.436;2023-07-31T05:28:16;97234.66;;;15.49
78917;BMP280;68315;48.608;11.436;2023-07-31T05:30:41;97250.44;;;15.56
78917;BMP280;68315;48.608;11.436;2023-07-31T05:33:06;97242.59;;;15.69
78917;BMP280;68315;48.608;11.436;2023-07-31T05:35:32;97245.03;;;15.90
78917;BMP280;68315;48.608;11.436;2023-07-31T05:37:57;97248.06;;;16.01
78917;BMP280;68315;48.608;11.436;2023-07-31T05:40:22;97239.78;;;16.18
78917;BMP280;68315;48.608;11.436;2023-07-31T05:42:47;97235.22;;;16.30
78917;BMP280;68315;48.608;11.436;2023-07-31T05:45:13;97238.94;;;16.42
78917;BMP280;68315;48.608;11.436;2023-07-31T05:47:39;97243.44;;;16.55
78917;BMP280;68315;48.608;11.436;2023-07-31T05:50:04;97244.09;;;16.63
78917;BMP280;68315;48.608;11.436;2023-07-31T05:52:30;97239.78;;;16.70
78917;BMP280;68315;48.608;11.436;2023-07-31T05:54:55;97242.09;;;16.73
78917;BMP280;68315;48.608;11.436;2023-07-31T05:57:20;97235.88;;;16.82
78917;BMP280;68315;48.608;11.436;2023-07-31T05:59:45;97240.19;;;16.93
78917;BMP280;68315;48.608;11.436;2023-07-31T06:02:11;97244.78;;;16.98
78917;BMP280;68315;48.608;11.436;2023-07-31T06:04:36;97243.03;;;17.02
78917;BMP280;68315;48.608;11.436;2023-07-31T06:07:03;97230.38;;;17.09
78917;BMP280;68315;48.608;11.436;2023-07-31T06:09:29;97226.19;;;17.17
78917;BMP280;68315;48.608;11.436;2023-07-31T06:11:54;97225.16;;;17.22
78917;BMP280;68315;48.608;11.436;2023-07-31T06:14:19;97224.75;;;17.26
78917;BMP280;68315;48.608;11.436;2023-07-31T06:16:44;97228.97;;;17.27
78917;BMP280;68315;48.608;11.436;2023-07-31T06:19:10;97225.03;;;17.30
78917;BMP280;68315;48.608;11.436;2023-07-31T06:21:36;97230.31;;;17.35
78917;BMP280;68315;48.608;11.436;2023-07-31T06:24:05;97228.03;;;17.41
78917;BMP280;68315;48.608;11.436;2023-07-31T06:26:30;97226.00;;;17.42
78917;BMP280;68315;48.608;11.436;2023-07-31T06:28:56;97217.22;;;17.45
78917;BMP280;68315;48.608;11.436;2023-07-31T06:31:21;97215.19;;;17.46
78917;BMP280;68315;48.608;11.436;2023-07-31T06:33:49;97217.38;;;17.47
78917;BMP280;68315;48.608;11.436;2023-07-31T06:36:14;97217.13;;;17.53
78917;BMP280;68315;48.608;11.436;2023-07-31T06:38:39;97216.97;;;17.61
78917;BMP280;68315;48.608;11.436;2023-07-31T06:41:04;97208.19;;;17.64
78917;BMP280;68315;48.608;11.436;2023-07-31T06:43:30;97207.38;;;17.71
78917;BMP280;68315;48.608;11.436;2023-07-31T06:45:55;97202.41;;;17.79
78917;BMP280;68315;48.608;11.436;2023-07-31T06:48:20;97205.91;;;17.89
78917;BMP280;68315;48.608;11.436;2023-07-31T06:50:45;97215.91;;;18.02
78917;BMP280;68315;48.608;11.436;2023-07-31T06:53:11;97214.75;;;18.14
78917;BMP280;68315;48.608;11.436;2023-07-31T06:55:36;97215.03;;;18.28
78917;BMP280;68315;48.608;11.436;2023-07-31T06:58:01;97209.94;;;18.43
78917;BMP280;68315;48.608;11.436;2023-07-31T07:00:27;97211.34;;;18.54
78917;BMP280;68315;48.608;11.436;2023-07-31T07:02:52;97201.53;;;18.62
78917;BMP280;68315;48.608;11.436;2023-07-31T07:05:17;97216.44;;;18.67
78917;BMP280;68315;48.608;11.436;2023-07-31T07:07:43;97212.22;;;18.76
78917;BMP280;68315;48.608;11.436;2023-07-31T07:10:09;97204.44;;;18.84
78917;BMP280;68315;48.608;11.436;2023-07-31T07:12:35;97212.00;;;18.93
78917;BMP280;68315;48.608;11.436;2023-07-31T07:15:01;97205.25;;;19.05
78917;BMP280;68315;48.608;11.436;2023-07-31T07:17:27;97207.09;;;19.12
78917;BMP280;68315;48.608;11.436;2023-07-31T07:19:53;97207.84;;;19.13
78917;BMP280;68315;48.608;11.436;2023-07-31T07:22:18;97208.56;;;19.13
78917;BMP280;68315;48.608;11.436;2023-07-31T07:24:43;97206.69;;;19.16
78917;BMP280;68315;48.608;11.436;2023-07-31T07:27:09;97200.34;;;19.25
78917;BMP280;68315;48.608;11.436;2023-07-31T07:29:35;97191.19;;;19.34
78917;BMP280;68315;48.608;11.436;2023-07-31T07:32:00;97194.09;;;19.45
78917;BMP280;68315;48.608;11.436;2023-07-31T07:34:27;97187.97;;;19.58
78917;BMP280;68315;48.608;11.436;2023-07-31T07:36:53;97180.84;;;19.76
78917;BMP280;68315;48.608;11.436;2023-07-31T07:39:18;97194.88;;;20.00
78917;BMP280;68315;48.608;11.436;2023-07-31T07:41:43;97186.31;;;20.07
78917;BMP280;68315;48.608;11.436;2023-07-31T07:44:09;97188.38;;;20.07
78917;BMP280;68315;48.608;11.436;2023-07-31T07:46:34;97187.84;;;19.99
78917;BMP280;68315;48.608;11.436;2023-07-31T07:48:59;97191.97;;;19.98
78917;BMP280;68315;48.608;11.436;2023-07-31T07:51:24;97192.25;;;20.02
78917;BMP280;68315;48.608;11.436;2023-07-31T07:53:50;97187.75;;;20.08
78917;BMP280;68315;48.608;11.436;2023-07-31T07:56:15;97193.78;;;20.26
78917;BMP280;68315;48.608;11.436;2023-07-31T07:58:41;97196.66;;;20.49
78917;BMP280;68315;48.608;11.436;2023-07-31T08:01:06;97193.28;;;20.62
78917;BMP280;68315;48.608;11.436;2023-07-31T08:03:31;97193.06;;;20.58
78917;BMP280;68315;48.608;11.436;2023-07-31T08:06:00;97190.88;;;20.56
78917;BMP280;68315;48.608;11.436;2023-07-31T08:08:26;97185.72;;;20.53
78917;BMP280;68315;48.608;11.436;2023-07-31T08:10:51;97193.88;;;20.49
78917;BMP280;68315;48.608;11.436;2023-07-31T08:13:16;97182.81;;;20.51
78917;BMP280;68315;48.608;11.436;2023-07-31T08:15:42;97187.94;;;20.54
78917;BMP280;68315;48.608;11.436;2023-07-31T08:18:08;97188.19;;;20.58
78917;BMP280;68315;48.608;11.436;2023-07-31T08:20:33;97190.00;;;20.54
78917;BMP280;68315;48.608;11.436;2023-07-31T08:22:58;97192.44;;;20.59
78917;BMP280;68315;48.608;11.436;2023-07-31T08:25:23;97196.81;;;20.62
78917;BMP280;68315;48.608;11.436;2023-07-31T08:27:49;97203.38;;;20.67
78917;BMP280;68315;48.608;11.436;2023-07-31T08:30:14;97204.41;;;20.83
78917;BMP280;68315;48.608;11.436;2023-07-31T08:32:39;97190.09;;;21.00
78917;BMP280;68315;48.608;11.436;2023-07-31T08:35:05;97187.66;;;21.18
78917;BMP280;68315;48.608;11.436;2023-07-31T08:37:30;97180.22;;;21.22
78917;BMP280;68315;48.608;11.436;2023-07-31T08:39:55;97178.19;;;21.23
78917;BMP280;68315;48.608;11.436;2023-07-31T08:42:20;97176.81;;;21.24
78917;BMP280;68315;48.608;11.436;2023-07-31T08:44:46;97184.00;;;21.27
78917;BMP280;68315;48.608;11.436;2023-07-31T08:47:12;97187.41;;;21.37
78917;BMP280;68315;48.608;11.436;2023-07-31T08:49:38;97189.22;;;21.44
78917;BMP280;68315;48.608;11.436;2023-07-31T08:52:03;97189.09;;;21.53
78917;BMP280;68315;48.608;11.436;2023-07-31T08:54:29;97169.63;;;21.55
78917;BMP280;68315;48.608;11.436;2023-07-31T08:56:56;97175.13;;;21.53
78917;BMP280;68315;48.608;11.436;2023-07-31T08:59:22;97173.00;;;21.54
78917;BMP280;68315;48.608;11.436;2023-07-31T09:01:50;97172.16;;;21.63
78917;BMP280;68315;48.608;11.436;2023-07-31T09:04:19;97169.09;;;21.70
78917;BMP280;68315;48.608;11.436;2023-07-31T09:06:45;97168.50;;;21.72
78917;BMP280;68315;48.608;11.436;2023-07-31T09:09:11;97171.78;;;21.68
78917;BMP280;68315;48.608;11.436;2023-07-31T09:11:36;97172.31;;;21.65
78917;BMP280;68315;48.608;11.436;2023-07-31T09:14:02;97163.63;;;21.72
78917;BMP280;68315;48.608;11.436;2023-07-31T09:16:33;97149.09;;;21.87
78917;BMP280;68315;48.608;11.436;2023-07-31T09:18:59;97152.56;;;21.99
78917;BMP280;68315;48.608;11.436;2023-07-31T09:21:27;97153.84;;;22.10
78917;BMP280;68315;48.608;11.436;2023-07-31T09:23:52;97145.03;;;22.15
78917;BMP280;68315;48.608;11.436;2023-07-31T09:26:29;97138.28;;;22.07
78917;BMP280;68315;48.608;11.436;2023-07-31T09:28:55;97142.75;;;21.98
78917;BMP280;68315;48.608;11.436;2023-07-31T09:31:38;97146.13;;;21.97
78917;BMP280;68315;48.608;11.436;2023-07-31T09:34:04;97147.81;;;22.02
78917;BMP280;68315;48.608;11.436;2023-07-31T09:36:30;97147.25;;;22.17
78917;BMP280;68315;48.608;11.436;2023-07-31T09:39:02;97143.09;;;22.43
78917;BMP280;68315;48.608;11.436;2023-07-31T09:41:28;97138.16;;;22.69
78917;BMP280;68315;48.608;11.436;2023-07-31T09:43:54;97119.09;;;22.92
78917;BMP280;68315;48.608;11.436;2023-07-31T09:46:20;97116.25;;;23.06
78917;BMP280;68315;48.608;11.436;2023-07-31T09:48:48;97111.38;;;23.06
78917;BMP280;68315;48.608;11.436;2023-07-31T09:51:13;97112.44;;;22.99
78917;BMP280;68315;48.608;11.436;2023-07-31T09:53:39;97112.84;;;23.21
78917;BMP280;68315;48.608;11.436;2023-07-31T09:56:04;97097.44;;;23.35
78917;BMP280;68315;48.608;11.436;2023-07-31T09:58:34;97096.91;;;23.39
78917;BMP280;68315;48.608;11.436;2023-07-31T10:01:00;97092.03;;;23.39
78917;BMP280;68315;48.608;11.436;2023-07-31T10:03:27;97106.91;;;23.42
78917;BMP280;68315;48.608;11.436;2023-07-31T10:05:53;97090.41;;;23.21
78917;BMP280;68315;48.608;11.436;2023-07-31T10:08:21;97087.72;;;23.09
78917;BMP280;68315;48.608;11.436;2023-07-31T10:10:48;97089.63;;;23.05
78917;BMP280;68315;48.608;11.436;2023-07-31T10:13:14;97089.59;;;23.18
78917;BMP280;68315;48.608;11.436;2023-07-31T10:15:40;97087.78;;;23.38
78917;BMP280;68315;48.608;11.436;2023-07-31T10:18:08;97107.47;;;23.54
78917;BMP280;68315;48.608;11.436;2023-07-31T10:20:34;97084.66;;;23.75
78917;BMP280;68315;48.608;11.436;2023-07-31T10:23:00;97087.50;;;23.61
78917;BMP280;68315;48.608;11.436;2023-07-31T10:25:26;97086.78;;;23.18
78917;BMP280;68315;48.608;11.436;2023-07-31T10:27:53;97089.50;;;22.89
78917;BMP280;68315;48.608;11.436;2023-07-31T10:30:22;97092.94;;;22.74
78917;BMP280;68315;48.608;11.436;2023-07-31T10:32:50;97094.66;;;22.95
78917;BMP280;68315;48.608;11.436;2023-07-31T10:35:17;97080.06;;;23.39
78917;BMP280;68315;48.608;11.436;2023-07-31T10:37:43;97079.03;;;23.75
78917;BMP280;68315;48.608;11.436;2023-07-31T10:40:19;97076.09;;;24.18
78917;BMP280;68315;48.608;11.436;2023-07-31T10:42:52;97087.66;;;24.39
78917;BMP280;68315;48.608;11.436;2023-07-31T10:45:30;97070.25;;;24.43
78917;BMP280;68315;48.608;11.436;2023-07-31T10:48:00;97064.91;;;24.33
78917;BMP280;68315;48.608;11.436;2023-07-31T10:50:26;97074.47;;;23.97
78917;BMP280;68315;48.608;11.436;2023-07-31T10:52:54;97058.91;;;23.94
78917;BMP280;68315;48.608;11.436;2023-07-31T10:55:26;97064.00;;;24.29
78917;BMP280;68315;48.608;11.436;2023-07-31T10:57:53;97052.28;;;24.03
78917;BMP280;68315;48.608;11.436;2023-07-31T11:00:21;97051.50;;;23.71
78917;BMP280;68315;48.608;11.436;2023-07-31T11:08:19;97034.25;;;24.55
78917;BMP280;68315;48.608;11.436;2023-07-31T11:10:45;97048.84;;;24.51
78917;BMP280;68315;48.608;11.436;2023-07-31T11:13:11;97049.59;;;24.36
78917;BMP280;68315;48.608;11.436;2023-07-31T11:15:36;97040.44;;;24.20
78917;BMP280;68315;48.608;11.436;2023-07-31T11:18:02;97024.03;;;23.99
78917;BMP280;68315;48.608;11.436;2023-07-31T11:20:34;97021.03;;;23.95
78917;BMP280;68315;48.608;11.436;2023-07-31T11:23:01;97016.78;;;24.25
78917;BMP280;68315;48.608;11.436;2023-07-31T11:25:29;97008.47;;;24.60
78917;BMP280;68315;48.608;11.436;2023-07-31T11:27:54;97010.88;;;24.50
78917;BMP280;68315;48.608;11.436;2023-07-31T11:30:21;96997.28;;;24.29
78917;BMP280;68315;48.608;11.436;2023-07-31T11:32:46;97013.69;;;24.03
78917;BMP280;68315;48.608;11.436;2023-07-31T11:35:12;96995.75;;;23.95
78917;BMP280;68315;48.608;11.436;2023-07-31T11:37:42;96997.13;;;24.10
78917;BMP280;68315;48.608;11.436;2023-07-31T11:40:07;97003.56;;;24.28
78917;BMP280;68315;48.608;11.436;2023-07-31T11:42:34;96983.44;;;24.33
78917;BMP280;68315;48.608;11.436;2023-07-31T11:45:05;96985.91;;;24.58
78917;BMP280;68315;48.608;11.436;2023-07-31T11:47:32;96975.63;;;24.98
78917;BMP280;68315;48.608;11.436;2023-07-31T11:49:59;96982.22;;;25.22
78917;BMP280;68315;48.608;11.436;2023-07-31T11:52:25;96976.22;;;25.29
78917;BMP280;68315;48.608;11.436;2023-07-31T11:54:50;96964.56;;;25.19
78917;BMP280;68315;48.608;11.436;2023-07-31T11:57:16;96951.13;;;25.00
78917;BMP280;68315;48.608;11.436;2023-07-31T11:59:42;96947.13;;;25.05
78917;BMP280;68315;48.608;11.436;2023-07-31T12:02:08;96948.38;;;25.20
78917;BMP280;68315;48.608;11.436;2023-07-31T12:04:34;96945.22;;;25.47
78917;BMP280;68315;48.608;11.436;2023-07-31T12:07:00;96959.28;;;25.47
78917;BMP280;68315;48.608;11.436;2023-07-31T12:09:25;96952.66;;;25.03
78917;BMP280;68315;48.608;11.436;2023-07-31T12:11:51;96954.50;;;25.14
78917;BMP280;68315;48.608;11.436;2023-07-31T12:14:20;96959.59;;;25.55
78917;BMP280;68315;48.608;11.436;2023-07-31T12:16:46;96961.72;;;25.54
78917;BMP280;68315;48.608;11.436;2023-07-31T12:19:11;96958.34;;;25.23
78917;BMP280;68315;48.608;11.436;2023-07-31T12:21:37;96960.66;;;24.93
78917;BMP280;68315;48.608;11.436;2023-07-31T12:24:03;96960.34;;;24.85
78917;BMP280;68315;48.608;11.436;2023-07-31T12:26:34;96953.28;;;24.84
78917;BMP280;68315;48.608;11.436;2023-07-31T12:28:59;96962.53;;;24.87
78917;BMP280;68315;48.608;11.436;2023-07-31T12:31:27;96950.94;;;24.96
78917;BMP280;68315;48.608;11.436;2023-07-31T12:33:53;96950.34;;;25.15
78917;BMP280;68315;48.608;11.436;2023-07-31T12:36:22;96939.66;;;25.12
78917;BMP280;68315;48.608;11.436;2023-07-31T12:38:48;96950.38;;;25.00
78917;BMP280;68315;48.608;11.436;2023-07-31T12:41:14;96942.38;;;25.10
78917;BMP280;68315;48.608;11.436;2023-07-31T12:43:41;96931.63;;;25.59
78917;BMP280;68315;48.608;11.436;2023-07-31T12:46:07;96929.84;;;26.07
78917;BMP280;68315;48.608;11.436;2023-07-31T12:48:37;96917.34;;;26.53
78917;BMP280;68315;48.608;11.436;2023-07-31T12:51:03;96907.00;;;26.81
78917;BMP280;68315;48.608;11.436;2023-07-31T12:53:28;96914.41;;;27.39
78917;BMP280;68315;48.608;11.436;2023-07-31T12:55:55;96910.03;;;27.34
78917;BMP280;68315;48.608;11.436;2023-07-31T12:58:21;96907.59;;;27.22
78917;BMP280;68315;48.608;11.436;2023-07-31T13:00:46;96894.78;;;27.19
78917;BMP280;68315;48.608;11.436;2023-07-31T13:03:11;96898.59;;;27.06
78917;BMP280;68315;48.608;11.436;2023-07-31T13:05:36;96893.66;;;27.28
78917;BMP280;68315;48.608;11.436;2023-07-31T13:08:02;96893.53;;;27.73
78917;BMP280;68315;48.608;11.436;2023-07-31T13:10:27;96898.63;;;28.32
78917;BMP280;68315;48.608;11.436;2023-07-31T13:12:54;96889.50;;;28.63
78917;BMP280;68315;48.608;11.436;2023-07-31T13:15:19;96881.75;;;28.97
78917;BMP280;68315;48.608;11.436;2023-07-31T13:17:46;96883.81;;;28.95
78917;BMP280;68315;48.608;11.436;2023-07-31T13:20:11;96878.47;;;28.48
78917;BMP280;68315;48.608;11.436;2023-07-31T13:22:36;96875.06;;;28.24
78917;BMP280;68315;48.608;11.436;2023-07-31T13:25:02;96872.81;;;28.18
78917;BMP280;68315;48.608;11.436;2023-07-31T13:27:28;96863.25;;;28.31
78917;BMP280;68315;48.608;11.436;2023-07-31T13:29:53;96863.06;;;28.53
78917;BMP280;68315;48.608;11.436;2023-07-31T13:32:19;96860.88;;;28.49
78917;BMP280;68315;48.608;11.436;2023-07-31T13:34:45;96853.91;;;28.54
78917;BMP280;68315;48.608;11.436;2023-07-31T13:37:10;96854.78;;;28.31
78917;BMP280;68315;48.608;11.436;2023-07-31T13:39:36;96845.53;;;28.01
78917;BMP280;68315;48.608;11.436;2023-07-31T13:42:03;96846.66;;;27.90
78917;BMP280;68315;48.608;11.436;2023-07-31T13:44:28;96841.81;;;27.67
78917;BMP280;68315;48.608;11.436;2023-07-31T13:46:53;96846.75;;;27.43
78917;BMP280;68315;48.608;11.436;2023-07-31T13:49:18;96842.72;;;27.24
78917;BMP280;68315;48.608;11.436;2023-07-31T13:51:44;96846.13;;;26.74
78917;BMP280;68315;48.608;11.436;2023-07-31T13:54:09;96831.97;;;26.50
78917;BMP280;68315;48.608;11.436;2023-07-31T13:56:36;96817.03;;;26.46
78917;BMP280;68315;48.608;11.436;2023-07-31T13:59:02;96825.53;;;26.93